sensor_id;sensor_type;location;lat;lon;timestamp;P1;durP1;ratioP1;P2;durP2;ratioP2
21769;SDS011;11046;49.558;8.674;2022-10-31T00:02:56;19.77;;;10.00;;
21769;SDS011;11046;49.558;8.674;2022-10-31T00:05:57;22.37;;;10.77;;
21769;SDS011;11046;49.558;8.674;2022-10-31T00:09:02;22.13;;;9.70;;
21769;SDS011;11046;49.558;8.674;2022-10-31T00:12:03;24.67;;;10.00;;
21769;SDS011;11046;49.558;8.674;2022-10-31T00:15:04;22.93;;;9.77;;
21769;SDS011;11046;49.558;8.674;2022-10-31T00:18:05;25.80;;;10.47;;
21769;SDS011;11046;49.558;8.674;2022-10-31T00:21:07;18.43;;;9.50;;
21769;SDS011;11046;49.558;8.674;2022-10-31T00:24:07;19.87;;;10.10;;
21769;SDS011;11046;49.558;8.674;2022-10-31T00:27:08;19.53;;;9.50;;
21769;SDS011;11046;49.558;8.674;2022-10-31T00:30:09;20.67;;;9.50;;
21769;SDS011;11046;49.558;8.674;2022-10-31T00:33:10;18.53;;;10.07;;
21769;SDS011;11046;49.558;8.674;2022-10-31T00:36:11;23.87;;;9.83;;
21769;SDS011;11046;49.558;8.674;2022-10-31T00:39:16;17.63;;;10.33;;
21769;SDS011;11046;49.558;8.674;2022-10-31T00:42:17;18.33;;;9.83;;
21769;SDS011;11046;49.558;8.674;2022-10-31T00:45:18;18.03;;;10.07;;
21769;SDS011;11046;49.558;8.674;2022-10-31T00:48:19;18.27;;;9.50;;
21769;SDS011;11046;49.558;8.674;2022-10-31T00:51:20;23.43;;;9.93;;
21769;SDS011;11046;49.558;8.674;2022-10-31T00:54:20;21.53;;;9.97;;
21769;SDS011;11046;49.558;8.674;2022-10-31T00:57:21;21.60;;;9.90;;
21769;SDS011;11046;49.558;8.674;2022-10-31T01:00:22;23.90;;;10.80;;
21769;SDS011;11046;49.558;8.674;2022-10-31T01:03:27;19.77;;;9.87;;
21769;SDS011;11046;49.558;8.674;2022-10-31T01:06:29;19.93;;;10.03;;
21769;SDS011;11046;49.558;8.674;2022-10-31T01:09:31;18.47;;;9.20;;
21769;SDS011;11046;49.558;8.674;2022-10-31T01:12:40;17.70;;;9.77;;
21769;SDS011;11046;49.558;8.674;2022-10-31T01:15:42;21.50;;;9.43;;
21769;SDS011;11046;49.558;8.674;2022-10-31T01:18:42;15.90;;;9.23;;
21769;SDS011;11046;49.558;8.674;2022-10-31T01:21:43;20.83;;;9.40;;
21769;SDS011;11046;49.558;8.674;2022-10-31T01:24:44;19.40;;;9.23;;
21769;SDS011;11046;49.558;8.674;2022-10-31T01:27:45;18.80;;;8.73;;
21769;SDS011;11046;49.558;8.674;2022-10-31T01:30:45;19.07;;;9.20;;
21769;SDS011;11046;49.558;8.674;2022-10-31T01:33:46;18.63;;;9.43;;
21769;SDS011;11046;49.558;8.674;2022-10-31T01:36:46;16.40;;;9.33;;
21769;SDS011;11046;49.558;8.674;2022-10-31T01:39:51;24.33;;;9.77;;
21769;SDS011;11046;49.558;8.674;2022-10-31T01:42:51;20.13;;;9.20;;
21769;SDS011;11046;49.558;8.674;2022-10-31T01:45:52;20.37;;;8.87;;
21769;SDS011;11046;49.558;8.674;2022-10-31T01:48:54;22.80;;;9.47;;
21769;SDS011;11046;49.558;8.674;2022-10-31T01:52:01;23.50;;;9.30;;
21769;SDS011;11046;49.558;8.674;2022-10-31T01:55:13;19.60;;;9.37;;
21769;SDS011;11046;49.558;8.674;2022-10-31T01:58:22;17.80;;;9.83;;
21769;SDS011;11046;49.558;8.674;2022-10-31T02:01:27;19.97;;;10.27;;
21769;SDS011;11046;49.558;8.674;2022-10-31T02:04:29;26.60;;;11.07;;
21769;SDS011;11046;49.558;8.674;2022-10-31T02:07:31;18.70;;;10.23;;
21769;SDS011;11046;49.558;8.674;2022-10-31T02:10:38;28.10;;;10.70;;
21769;SDS011;11046;49.558;8.674;2022-10-31T02:13:41;21.83;;;11.03;;
21769;SDS011;11046;49.558;8.674;2022-10-31T02:16:42;28.33;;;12.17;;
21769;SDS011;11046;49.558;8.674;2022-10-31T02:19:55;22.37;;;11.37;;
21769;SDS011;11046;49.558;8.674;2022-10-31T02:29:39;20.17;;;9.90;;
21769;SDS011;11046;49.558;8.674;2022-10-31T02:36:43;21.90;;;10.20;;
21769;SDS011;11046;49.558;8.674;2022-10-31T02:46:45;29.43;;;13.30;;
21769;SDS011;11046;49.558;8.674;2022-10-31T02:50:07;21.00;;;10.00;;
21769;SDS011;11046;49.558;8.674;2022-10-31T02:53:16;23.90;;;10.27;;
21769;SDS011;11046;49.558;8.674;2022-10-31T02:56:17;20.97;;;10.03;;
21769;SDS011;11046;49.558;8.674;2022-10-31T02:59:19;20.53;;;9.60;;
21769;SDS011;11046;49.558;8.674;2022-10-31T03:06:03;18.47;;;10.13;;
21769;SDS011;11046;49.558;8.674;2022-10-31T03:10:00;29.03;;;10.57;;
21769;SDS011;11046;49.558;8.674;2022-10-31T03:16:07;18.90;;;10.70;;
21769;SDS011;11046;49.558;8.674;2022-10-31T03:19:19;19.67;;;10.87;;
21769;SDS011;11046;49.558;8.674;2022-10-31T03:22:28;21.17;;;10.97;;
21769;SDS011;11046;49.558;8.674;2022-10-31T03:25:32;20.13;;;9.43;;
21769;SDS011;11046;49.558;8.674;2022-10-31T03:28:41;23.53;;;9.17;;
21769;SDS011;11046;49.558;8.674;2022-10-31T03:31:49;26.67;;;9.87;;
21769;SDS011;11046;49.558;8.674;2022-10-31T03:34:50;20.17;;;10.23;;
21769;SDS011;11046;49.558;8.674;2022-10-31T03:37:54;18.90;;;9.73;;
21769;SDS011;11046;49.558;8.674;2022-10-31T03:40:56;17.83;;;9.50;;
21769;SDS011;11046;49.558;8.674;2022-10-31T03:44:07;26.37;;;9.23;;
21769;SDS011;11046;49.558;8.674;2022-10-31T03:47:13;20.27;;;9.50;;
21769;SDS011;11046;49.558;8.674;2022-10-31T03:50:14;19.47;;;9.07;;
21769;SDS011;11046;49.558;8.674;2022-10-31T03:53:17;23.87;;;9.10;;
21769;SDS011;11046;49.558;8.674;2022-10-31T03:56:29;15.23;;;8.67;;
21769;SDS011;11046;49.558;8.674;2022-10-31T03:59:44;22.67;;;8.87;;
21769;SDS011;11046;49.558;8.674;2022-10-31T04:02:55;17.27;;;9.17;;
21769;SDS011;11046;49.558;8.674;2022-10-31T04:06:04;20.30;;;9.00;;
21769;SDS011;11046;49.558;8.674;2022-10-31T04:09:09;25.27;;;10.00;;
21769;SDS011;11046;49.558;8.674;2022-10-31T04:12:11;15.27;;;8.73;;
21769;SDS011;11046;49.558;8.674;2022-10-31T04:15:29;20.30;;;9.00;;
21769;SDS011;11046;49.558;8.674;2022-10-31T04:18:33;18.20;;;9.50;;
21769;SDS011;11046;49.558;8.674;2022-10-31T04:21:33;24.77;;;8.87;;
21769;SDS011;11046;49.558;8.674;2022-10-31T04:24:34;19.20;;;8.97;;
21769;SDS011;11046;49.558;8.674;2022-10-31T04:27:38;24.73;;;9.37;;
21769;SDS011;11046;49.558;8.674;2022-10-31T04:30:41;29.37;;;9.77;;
21769;SDS011;11046;49.558;8.674;2022-10-31T04:33:42;23.40;;;9.53;;
21769;SDS011;11046;49.558;8.674;2022-10-31T04:36:42;25.27;;;9.67;;
21769;SDS011;11046;49.558;8.674;2022-10-31T04:39:43;20.77;;;10.13;;
21769;SDS011;11046;49.558;8.674;2022-10-31T04:43:19;22.70;;;9.40;;
21769;SDS011;11046;49.558;8.674;2022-10-31T04:46:19;18.13;;;9.30;;
21769;SDS011;11046;49.558;8.674;2022-10-31T04:49:21;21.87;;;10.13;;
21769;SDS011;11046;49.558;8.674;2022-10-31T04:52:22;17.13;;;9.07;;
21769;SDS011;11046;49.558;8.674;2022-10-31T04:55:22;23.57;;;9.93;;
21769;SDS011;11046;49.558;8.674;2022-10-31T04:58:55;16.50;;;8.50;;
21769;SDS011;11046;49.558;8.674;2022-10-31T05:01:57;17.43;;;8.60;;
21769;SDS011;11046;49.558;8.674;2022-10-31T05:05:14;22.30;;;9.20;;
21769;SDS011;11046;49.558;8.674;2022-10-31T05:08:16;22.60;;;8.77;;
21769;SDS011;11046;49.558;8.674;2022-10-31T05:11:16;17.43;;;9.30;;
21769;SDS011;11046;49.558;8.674;2022-10-31T05:14:18;18.23;;;9.23;;
21769;SDS011;11046;49.558;8.674;2022-10-31T05:17:39;21.97;;;8.57;;
21769;SDS011;11046;49.558;8.674;2022-10-31T05:20:58;18.20;;;9.03;;
21769;SDS011;11046;49.558;8.674;2022-10-31T05:24:09;21.63;;;10.10;;
21769;SDS011;11046;49.558;8.674;2022-10-31T05:27:12;20.80;;;11.10;;
21769;SDS011;11046;49.558;8.674;2022-10-31T05:30:14;21.27;;;11.43;;
21769;SDS011;11046;49.558;8.674;2022-10-31T05:33:16;25.03;;;12.27;;
21769;SDS011;11046;49.558;8.674;2022-10-31T05:36:35;24.00;;;11.57;;
21769;SDS011;11046;49.558;8.674;2022-10-31T05:39:43;20.57;;;11.00;;
21769;SDS011;11046;49.558;8.674;2022-10-31T05:42:50;29.17;;;13.40;;
21769;SDS011;11046;49.558;8.674;2022-10-31T05:45:52;30.20;;;13.17;;
21769;SDS011;11046;49.558;8.674;2022-10-31T05:49:13;22.90;;;12.10;;
21769;SDS011;11046;49.558;8.674;2022-10-31T05:52:56;23.43;;;11.00;;
21769;SDS011;11046;49.558;8.674;2022-10-31T05:56:07;20.90;;;11.23;;
21769;SDS011;11046;49.558;8.674;2022-10-31T05:59:09;18.27;;;10.27;;
21769;SDS011;11046;49.558;8.674;2022-10-31T06:02:10;22.30;;;10.40;;
21769;SDS011;11046;49.558;8.674;2022-10-31T06:05:29;18.67;;;10.20;;
21769;SDS011;11046;49.558;8.674;2022-10-31T06:08:30;20.23;;;10.80;;
21769;SDS011;11046;49.558;8.674;2022-10-31T06:11:35;29.47;;;10.80;;
21769;SDS011;11046;49.558;8.674;2022-10-31T06:14:36;22.13;;;10.33;;
21769;SDS011;11046;49.558;8.674;2022-10-31T06:17:37;20.47;;;10.27;;
21769;SDS011;11046;49.558;8.674;2022-10-31T06:20:55;21.57;;;11.00;;
21769;SDS011;11046;49.558;8.674;2022-10-31T06:23:57;21.90;;;11.30;;
21769;SDS011;11046;49.558;8.674;2022-10-31T06:27:20;18.80;;;10.10;;
21769;SDS011;11046;49.558;8.674;2022-10-31T06:30:22;22.00;;;11.03;;
21769;SDS011;11046;49.558;8.674;2022-10-31T06:33:23;21.73;;;10.57;;
21769;SDS011;11046;49.558;8.674;2022-10-31T06:36:31;24.47;;;11.87;;
21769;SDS011;11046;49.558;8.674;2022-10-31T06:39:34;23.00;;;11.00;;
21769;SDS011;11046;49.558;8.674;2022-10-31T06:42:36;29.53;;;10.70;;
21769;SDS011;11046;49.558;8.674;2022-10-31T06:45:37;20.93;;;10.33;;
21769;SDS011;11046;49.558;8.674;2022-10-31T06:48:54;19.50;;;9.53;;
21769;SDS011;11046;49.558;8.674;2022-10-31T06:52:08;21.40;;;10.67;;
21769;SDS011;11046;49.558;8.674;2022-10-31T06:55:08;24.37;;;10.73;;
21769;SDS011;11046;49.558;8.674;2022-10-31T06:58:09;24.80;;;10.27;;
21769;SDS011;11046;49.558;8.674;2022-10-31T07:01:13;24.63;;;10.13;;
21769;SDS011;11046;49.558;8.674;2022-10-31T07:04:14;27.00;;;10.87;;
21769;SDS011;11046;49.558;8.674;2022-10-31T07:07:14;28.37;;;10.30;;
21769;SDS011;11046;49.558;8.674;2022-10-31T07:10:15;24.07;;;10.47;;
21769;SDS011;11046;49.558;8.674;2022-10-31T07:13:24;24.87;;;11.13;;
21769;SDS011;11046;49.558;8.674;2022-10-31T07:16:30;19.03;;;10.00;;
21769;SDS011;11046;49.558;8.674;2022-10-31T07:19:31;26.10;;;10.97;;
21769;SDS011;11046;49.558;8.674;2022-10-31T07:22:33;23.07;;;11.57;;
21769;SDS011;11046;49.558;8.674;2022-10-31T07:25:34;19.70;;;9.83;;
21769;SDS011;11046;49.558;8.674;2022-10-31T07:28:45;22.33;;;10.63;;
21769;SDS011;11046;49.558;8.674;2022-10-31T07:31:48;23.13;;;13.20;;
21769;SDS011;11046;49.558;8.674;2022-10-31T07:34:55;20.97;;;10.57;;
21769;SDS011;11046;49.558;8.674;2022-10-31T07:37:57;15.53;;;9.57;;
21769;SDS011;11046;49.558;8.674;2022-10-31T07:41:06;23.37;;;9.87;;
21769;SDS011;11046;49.558;8.674;2022-10-31T07:44:12;16.93;;;8.30;;
21769;SDS011;11046;49.558;8.674;2022-10-31T07:47:41;22.67;;;8.63;;
21769;SDS011;11046;49.558;8.674;2022-10-31T07:51:15;20.93;;;8.27;;
21769;SDS011;11046;49.558;8.674;2022-10-31T07:54:34;18.70;;;8.70;;
21769;SDS011;11046;49.558;8.674;2022-10-31T07:57:35;15.57;;;8.70;;
21769;SDS011;11046;49.558;8.674;2022-10-31T08:00:41;16.97;;;7.77;;
21769;SDS011;11046;49.558;8.674;2022-10-31T08:03:46;17.37;;;7.93;;
21769;SDS011;11046;49.558;8.674;2022-10-31T08:07:25;16.33;;;8.07;;
21769;SDS011;11046;49.558;8.674;2022-10-31T08:10:33;17.33;;;7.50;;
21769;SDS011;11046;49.558;8.674;2022-10-31T08:13:34;13.90;;;7.20;;
21769;SDS011;11046;49.558;8.674;2022-10-31T08:16:36;18.13;;;7.53;;
21769;SDS011;11046;49.558;8.674;2022-10-31T08:19:39;14.83;;;7.17;;
21769;SDS011;11046;49.558;8.674;2022-10-31T08:22:42;18.07;;;7.60;;
21769;SDS011;11046;49.558;8.674;2022-10-31T08:25:43;17.83;;;7.37;;
21769;SDS011;11046;49.558;8.674;2022-10-31T08:28:46;19.63;;;7.50;;
21769;SDS011;11046;49.558;8.674;2022-10-31T08:31:48;19.33;;;7.73;;
21769;SDS011;11046;49.558;8.674;2022-10-31T08:35:07;17.00;;;6.97;;
21769;SDS011;11046;49.558;8.674;2022-10-31T08:38:43;16.23;;;7.00;;
21769;SDS011;11046;49.558;8.674;2022-10-31T08:41:46;19.10;;;8.05;;
21769;SDS011;11046;49.558;8.674;2022-10-31T08:44:48;19.27;;;7.90;;
21769;SDS011;11046;49.558;8.674;2022-10-31T08:47:48;13.40;;;6.95;;
21769;SDS011;11046;49.558;8.674;2022-10-31T08:50:49;14.07;;;6.90;;
21769;SDS011;11046;49.558;8.674;2022-10-31T08:53:50;19.50;;;7.90;;
21769;SDS011;11046;49.558;8.674;2022-10-31T08:57:09;16.83;;;6.82;;
21769;SDS011;11046;49.558;8.674;2022-10-31T09:00:14;16.98;;;6.95;;
21769;SDS011;11046;49.558;8.674;2022-10-31T09:03:28;17.08;;;7.50;;
21769;SDS011;11046;49.558;8.674;2022-10-31T09:06:31;13.25;;;7.78;;
21769;SDS011;11046;49.558;8.674;2022-10-31T09:09:33;20.58;;;7.70;;
21769;SDS011;11046;49.558;8.674;2022-10-31T09:12:34;17.58;;;7.88;;
21769;SDS011;11046;49.558;8.674;2022-10-31T09:15:53;14.70;;;7.57;;
21769;SDS011;11046;49.558;8.674;2022-10-31T09:18:57;17.85;;;7.25;;
21769;SDS011;11046;49.558;8.674;2022-10-31T09:21:58;17.10;;;8.13;;
21769;SDS011;11046;49.558;8.674;2022-10-31T09:24:58;22.90;;;7.82;;
21769;SDS011;11046;49.558;8.674;2022-10-31T09:28:00;19.45;;;7.43;;
21769;SDS011;11046;49.558;8.674;2022-10-31T09:31:01;15.90;;;7.78;;
21769;SDS011;11046;49.558;8.674;2022-10-31T09:34:23;17.00;;;8.00;;
21769;SDS011;11046;49.558;8.674;2022-10-31T09:37:43;14.70;;;6.88;;
21769;SDS011;11046;49.558;8.674;2022-10-31T09:43:52;16.50;;;7.53;;
21769;SDS011;11046;49.558;8.674;2022-10-31T09:50:41;16.35;;;6.63;;
21769;SDS011;11046;49.558;8.674;2022-10-31T09:54:14;13.05;;;6.70;;
21769;SDS011;11046;49.558;8.674;2022-10-31T09:57:19;14.85;;;7.57;;
21769;SDS011;11046;49.558;8.674;2022-10-31T10:00:25;18.83;;;8.55;;
21769;SDS011;11046;49.558;8.674;2022-10-31T10:03:33;19.65;;;7.80;;
21769;SDS011;11046;49.558;8.674;2022-10-31T10:06:44;23.52;;;8.23;;
21769;SDS011;11046;49.558;8.674;2022-10-31T10:10:35;22.17;;;8.93;;
21769;SDS011;11046;49.558;8.674;2022-10-31T10:14:28;20.77;;;9.48;;
21769;SDS011;11046;49.558;8.674;2022-10-31T10:24:27;19.85;;;11.95;;
21769;SDS011;11046;49.558;8.674;2022-10-31T10:31:13;32.03;;;15.35;;
21769;SDS011;11046;49.558;8.674;2022-10-31T10:34:20;31.08;;;12.45;;
21769;SDS011;11046;49.558;8.674;2022-10-31T10:37:28;21.60;;;11.02;;
21769;SDS011;11046;49.558;8.674;2022-10-31T10:40:36;24.40;;;11.82;;
21769;SDS011;11046;49.558;8.674;2022-10-31T10:43:38;21.02;;;11.95;;
21769;SDS011;11046;49.558;8.674;2022-10-31T10:46:43;25.83;;;12.43;;
21769;SDS011;11046;49.558;8.674;2022-10-31T10:50:18;22.17;;;11.40;;
21769;SDS011;11046;49.558;8.674;2022-10-31T10:56:55;19.35;;;10.73;;
21769;SDS011;11046;49.558;8.674;2022-10-31T11:00:15;20.05;;;10.48;;
21769;SDS011;11046;49.558;8.674;2022-10-31T11:03:36;20.23;;;10.27;;
21769;SDS011;11046;49.558;8.674;2022-10-31T11:06:37;19.88;;;10.95;;
21769;SDS011;11046;49.558;8.674;2022-10-31T11:09:37;25.33;;;11.45;;
21769;SDS011;11046;49.558;8.674;2022-10-31T11:12:38;17.60;;;10.40;;
21769;SDS011;11046;49.558;8.674;2022-10-31T11:15:49;23.65;;;10.45;;
21769;SDS011;11046;49.558;8.674;2022-10-31T11:18:53;19.70;;;9.98;;
21769;SDS011;11046;49.558;8.674;2022-10-31T11:22:26;19.95;;;9.95;;
21769;SDS011;11046;49.558;8.674;2022-10-31T11:25:26;20.38;;;10.40;;
21769;SDS011;11046;49.558;8.674;2022-10-31T11:28:28;25.23;;;11.35;;
21769;SDS011;11046;49.558;8.674;2022-10-31T11:31:29;21.15;;;11.10;;
21769;SDS011;11046;49.558;8.674;2022-10-31T11:34:52;26.77;;;11.23;;
21769;SDS011;11046;49.558;8.674;2022-10-31T11:38:04;15.65;;;11.27;;
21769;SDS011;11046;49.558;8.674;2022-10-31T11:41:13;19.98;;;11.85;;
21769;SDS011;11046;49.558;8.674;2022-10-31T11:44:19;25.42;;;12.88;;
21769;SDS011;11046;49.558;8.674;2022-10-31T11:47:29;21.40;;;11.82;;
21769;SDS011;11046;49.558;8.674;2022-10-31T11:50:38;27.63;;;12.13;;
21769;SDS011;11046;49.558;8.674;2022-10-31T11:53:47;20.55;;;11.55;;
21769;SDS011;11046;49.558;8.674;2022-10-31T11:56:52;26.38;;;11.48;;
21769;SDS011;11046;49.558;8.674;2022-10-31T11:59:53;21.83;;;11.55;;
21769;SDS011;11046;49.558;8.674;2022-10-31T12:06:28;24.77;;;12.48;;
21769;SDS011;11046;49.558;8.674;2022-10-31T12:09:34;22.20;;;11.70;;
21769;SDS011;11046;49.558;8.674;2022-10-31T12:12:39;25.65;;;11.63;;
21769;SDS011;11046;49.558;8.674;2022-10-31T12:15:46;21.13;;;11.20;;
21769;SDS011;11046;49.558;8.674;2022-10-31T12:22:05;23.77;;;12.20;;
21769;SDS011;11046;49.558;8.674;2022-10-31T12:40:00;24.95;;;12.07;;
21769;SDS011;11046;49.558;8.674;2022-10-31T12:46:51;20.35;;;11.98;;
21769;SDS011;11046;49.558;8.674;2022-10-31T12:56:54;18.50;;;11.60;;
21769;SDS011;11046;49.558;8.674;2022-10-31T13:00:12;18.27;;;12.05;;
21769;SDS011;11046;49.558;8.674;2022-10-31T13:03:20;19.70;;;11.77;;
21769;SDS011;11046;49.558;8.674;2022-10-31T13:06:33;24.77;;;13.30;;
21769;SDS011;11046;49.558;8.674;2022-10-31T13:13:05;23.92;;;12.38;;
21769;SDS011;11046;49.558;8.674;2022-10-31T13:16:19;20.33;;;12.50;;
21769;SDS011;11046;49.558;8.674;2022-10-31T13:19:24;19.25;;;12.57;;
21769;SDS011;11046;49.558;8.674;2022-10-31T13:22:31;27.15;;;12.48;;
21769;SDS011;11046;49.558;8.674;2022-10-31T13:25:40;22.35;;;12.77;;
21769;SDS011;11046;49.558;8.674;2022-10-31T13:32:47;19.63;;;11.98;;
21769;SDS011;11046;49.558;8.674;2022-10-31T13:35:53;19.70;;;11.90;;
21769;SDS011;11046;49.558;8.674;2022-10-31T13:42:36;21.90;;;12.15;;
21769;SDS011;11046;49.558;8.674;2022-10-31T13:45:53;23.05;;;11.55;;
21769;SDS011;11046;49.558;8.674;2022-10-31T13:48:55;34.63;;;14.18;;
21769;SDS011;11046;49.558;8.674;2022-10-31T13:58:40;24.13;;;13.57;;
21769;SDS011;11046;49.558;8.674;2022-10-31T14:01:56;31.00;;;14.85;;
21769;SDS011;11046;49.558;8.674;2022-10-31T14:05:01;25.23;;;14.10;;
21769;SDS011;11046;49.558;8.674;2022-10-31T14:08:03;24.75;;;13.15;;
21769;SDS011;11046;49.558;8.674;2022-10-31T14:11:05;22.30;;;13.15;;
21769;SDS011;11046;49.558;8.674;2022-10-31T14:14:09;31.98;;;14.57;;
21769;SDS011;11046;49.558;8.674;2022-10-31T14:17:17;23.50;;;13.75;;
21769;SDS011;11046;49.558;8.674;2022-10-31T14:23:35;31.27;;;15.20;;
21769;SDS011;11046;49.558;8.674;2022-10-31T14:26:40;26.25;;;16.70;;
21769;SDS011;11046;49.558;8.674;2022-10-31T14:29:52;30.50;;;16.30;;
21769;SDS011;11046;49.558;8.674;2022-10-31T14:33:16;32.15;;;16.35;;
21769;SDS011;11046;49.558;8.674;2022-10-31T14:36:25;30.65;;;15.15;;
21769;SDS011;11046;49.558;8.674;2022-10-31T14:42:56;23.75;;;13.48;;
21769;SDS011;11046;49.558;8.674;2022-10-31T14:46:24;29.38;;;14.32;;
21769;SDS011;11046;49.558;8.674;2022-10-31T14:49:39;24.55;;;13.45;;
21769;SDS011;11046;49.558;8.674;2022-10-31T14:52:56;23.13;;;13.65;;
21769;SDS011;11046;49.558;8.674;2022-10-31T14:55:59;24.17;;;13.93;;
21769;SDS011;11046;49.558;8.674;2022-10-31T14:59:06;27.67;;;13.88;;
21769;SDS011;11046;49.558;8.674;2022-10-31T15:02:12;26.02;;;13.90;;
21769;SDS011;11046;49.558;8.674;2022-10-31T15:05:18;24.30;;;13.68;;
21769;SDS011;11046;49.558;8.674;2022-10-31T15:08:53;26.45;;;13.60;;
21769;SDS011;11046;49.558;8.674;2022-10-31T15:11:51;24.85;;;13.98;;
21769;SDS011;11046;49.558;8.674;2022-10-31T15:14:51;26.70;;;14.30;;
21769;SDS011;11046;49.558;8.674;2022-10-31T15:17:54;27.05;;;13.15;;
21769;SDS011;11046;49.558;8.674;2022-10-31T15:20:57;22.55;;;13.27;;
21769;SDS011;11046;49.558;8.674;2022-10-31T15:23:59;29.55;;;13.95;;
21769;SDS011;11046;49.558;8.674;2022-10-31T15:27:01;25.73;;;13.77;;
21769;SDS011;11046;49.558;8.674;2022-10-31T15:30:02;25.30;;;12.93;;
21769;SDS011;11046;49.558;8.674;2022-10-31T15:33:20;30.73;;;14.88;;
21769;SDS011;11046;49.558;8.674;2022-10-31T15:36:24;28.50;;;13.93;;
21769;SDS011;11046;49.558;8.674;2022-10-31T15:39:26;24.75;;;12.38;;
21769;SDS011;11046;49.558;8.674;2022-10-31T15:42:28;25.15;;;13.98;;
21769;SDS011;11046;49.558;8.674;2022-10-31T15:45:32;29.70;;;14.10;;
21769;SDS011;11046;49.558;8.674;2022-10-31T15:48:35;35.88;;;18.73;;
21769;SDS011;11046;49.558;8.674;2022-10-31T15:51:36;28.13;;;17.13;;
21769;SDS011;11046;49.558;8.674;2022-10-31T15:54:42;25.23;;;13.35;;
21769;SDS011;11046;49.558;8.674;2022-10-31T15:57:47;29.75;;;13.23;;
21769;SDS011;11046;49.558;8.674;2022-10-31T16:00:57;27.55;;;13.98;;
21769;SDS011;11046;49.558;8.674;2022-10-31T16:04:19;30.83;;;14.85;;
21769;SDS011;11046;49.558;8.674;2022-10-31T16:07:23;30.40;;;14.30;;
21769;SDS011;11046;49.558;8.674;2022-10-31T16:10:25;27.30;;;14.10;;
21769;SDS011;11046;49.558;8.674;2022-10-31T16:13:27;24.60;;;14.07;;
21769;SDS011;11046;49.558;8.674;2022-10-31T16:16:42;26.90;;;14.70;;
21769;SDS011;11046;49.558;8.674;2022-10-31T16:19:54;26.52;;;14.52;;
21769;SDS011;11046;49.558;8.674;2022-10-31T16:22:57;32.17;;;15.07;;
21769;SDS011;11046;49.558;8.674;2022-10-31T16:25:59;30.88;;;15.85;;
21769;SDS011;11046;49.558;8.674;2022-10-31T16:28:59;30.10;;;13.95;;
21769;SDS011;11046;49.558;8.674;2022-10-31T16:32:00;25.52;;;15.02;;
21769;SDS011;11046;49.558;8.674;2022-10-31T16:38:10;31.83;;;15.85;;
21769;SDS011;11046;49.558;8.674;2022-10-31T16:41:11;27.73;;;16.13;;
21769;SDS011;11046;49.558;8.674;2022-10-31T16:44:19;27.65;;;16.25;;
21769;SDS011;11046;49.558;8.674;2022-10-31T16:47:24;28.70;;;14.50;;
21769;SDS011;11046;49.558;8.674;2022-10-31T16:50:26;26.98;;;15.02;;
21769;SDS011;11046;49.558;8.674;2022-10-31T16:53:27;24.00;;;12.40;;
21769;SDS011;11046;49.558;8.674;2022-10-31T16:56:29;37.42;;;18.75;;
21769;SDS011;11046;49.558;8.674;2022-10-31T16:59:33;33.92;;;18.65;;
21769;SDS011;11046;49.558;8.674;2022-10-31T17:02:34;28.98;;;18.88;;
21769;SDS011;11046;49.558;8.674;2022-10-31T17:05:34;30.25;;;15.70;;
21769;SDS011;11046;49.558;8.674;2022-10-31T17:08:36;32.88;;;14.18;;
21769;SDS011;11046;49.558;8.674;2022-10-31T17:11:38;30.08;;;13.63;;
21769;SDS011;11046;49.558;8.674;2022-10-31T17:14:45;25.25;;;12.93;;
21769;SDS011;11046;49.558;8.674;2022-10-31T17:17:49;26.13;;;12.52;;
21769;SDS011;11046;49.558;8.674;2022-10-31T17:20:49;24.42;;;12.07;;
21769;SDS011;11046;49.558;8.674;2022-10-31T17:23:50;27.17;;;14.70;;
21769;SDS011;11046;49.558;8.674;2022-10-31T17:26:51;20.58;;;12.80;;
21769;SDS011;11046;49.558;8.674;2022-10-31T17:29:52;33.60;;;17.02;;
21769;SDS011;11046;49.558;8.674;2022-10-31T17:32:52;20.90;;;10.70;;
21769;SDS011;11046;49.558;8.674;2022-10-31T17:35:54;30.10;;;15.18;;
21769;SDS011;11046;49.558;8.674;2022-10-31T17:38:54;25.33;;;12.82;;
21769;SDS011;11046;49.558;8.674;2022-10-31T17:41:55;28.73;;;13.07;;
21769;SDS011;11046;49.558;8.674;2022-10-31T17:44:56;22.48;;;12.48;;
21769;SDS011;11046;49.558;8.674;2022-10-31T17:47:56;25.17;;;12.15;;
21769;SDS011;11046;49.558;8.674;2022-10-31T17:51:00;56.83;;;30.02;;
21769;SDS011;11046;49.558;8.674;2022-10-31T17:54:05;37.58;;;17.55;;
21769;SDS011;11046;49.558;8.674;2022-10-31T17:57:07;36.30;;;17.67;;
21769;SDS011;11046;49.558;8.674;2022-10-31T18:00:10;38.67;;;18.85;;
21769;SDS011;11046;49.558;8.674;2022-10-31T18:03:13;35.97;;;19.20;;
21769;SDS011;11046;49.558;8.674;2022-10-31T18:06:13;38.95;;;21.98;;
21769;SDS011;11046;49.558;8.674;2022-10-31T18:09:16;33.10;;;17.35;;
21769;SDS011;11046;49.558;8.674;2022-10-31T18:12:17;29.63;;;16.80;;
21769;SDS011;11046;49.558;8.674;2022-10-31T18:15:17;27.23;;;15.75;;
21769;SDS011;11046;49.558;8.674;2022-10-31T18:18:19;29.17;;;15.82;;
21769;SDS011;11046;49.558;8.674;2022-10-31T18:21:20;31.20;;;16.08;;
21769;SDS011;11046;49.558;8.674;2022-10-31T18:24:21;35.40;;;16.23;;
21769;SDS011;11046;49.558;8.674;2022-10-31T18:27:21;31.67;;;15.38;;
21769;SDS011;11046;49.558;8.674;2022-10-31T18:30:22;30.95;;;17.08;;
21769;SDS011;11046;49.558;8.674;2022-10-31T18:33:22;31.75;;;16.15;;
21769;SDS011;11046;49.558;8.674;2022-10-31T18:36:23;31.70;;;15.18;;
21769;SDS011;11046;49.558;8.674;2022-10-31T18:39:24;32.80;;;18.45;;
21769;SDS011;11046;49.558;8.674;2022-10-31T18:42:26;25.40;;;15.15;;
21769;SDS011;11046;49.558;8.674;2022-10-31T18:45:27;31.90;;;17.15;;
21769;SDS011;11046;49.558;8.674;2022-10-31T18:48:27;30.95;;;16.88;;
21769;SDS011;11046;49.558;8.674;2022-10-31T18:51:30;31.85;;;17.13;;
21769;SDS011;11046;49.558;8.674;2022-10-31T18:54:31;33.92;;;18.27;;
21769;SDS011;11046;49.558;8.674;2022-10-31T18:57:32;43.00;;;27.20;;
21769;SDS011;11046;49.558;8.674;2022-10-31T19:00:33;35.40;;;21.67;;
21769;SDS011;11046;49.558;8.674;2022-10-31T19:03:36;31.30;;;18.70;;
21769;SDS011;11046;49.558;8.674;2022-10-31T19:06:38;36.58;;;18.90;;
21769;SDS011;11046;49.558;8.674;2022-10-31T19:09:39;45.38;;;25.98;;
21769;SDS011;11046;49.558;8.674;2022-10-31T19:12:39;43.45;;;20.08;;
21769;SDS011;11046;49.558;8.674;2022-10-31T19:15:41;35.55;;;20.02;;
21769;SDS011;11046;49.558;8.674;2022-10-31T19:18:42;44.47;;;19.83;;
21769;SDS011;11046;49.558;8.674;2022-10-31T19:21:44;35.13;;;19.25;;
21769;SDS011;11046;49.558;8.674;2022-10-31T19:24:46;37.92;;;19.80;;
21769;SDS011;11046;49.558;8.674;2022-10-31T19:27:47;37.80;;;18.42;;
21769;SDS011;11046;49.558;8.674;2022-10-31T19:30:51;42.92;;;20.75;;
21769;SDS011;11046;49.558;8.674;2022-10-31T19:33:53;47.55;;;24.00;;
21769;SDS011;11046;49.558;8.674;2022-10-31T19:36:54;55.60;;;29.60;;
21769;SDS011;11046;49.558;8.674;2022-10-31T19:39:55;43.90;;;21.33;;
21769;SDS011;11046;49.558;8.674;2022-10-31T19:42:57;45.60;;;27.08;;
21769;SDS011;11046;49.558;8.674;2022-10-31T19:45:58;50.80;;;28.35;;
21769;SDS011;11046;49.558;8.674;2022-10-31T19:49:00;40.22;;;19.88;;
21769;SDS011;11046;49.558;8.674;2022-10-31T19:52:01;35.47;;;19.77;;
21769;SDS011;11046;49.558;8.674;2022-10-31T19:55:02;35.60;;;20.55;;
21769;SDS011;11046;49.558;8.674;2022-10-31T19:58:02;63.10;;;28.55;;
21769;SDS011;11046;49.558;8.674;2022-10-31T20:01:10;45.10;;;23.40;;